createdAt,value
2022-12-26T00:00:37.315Z,99378.19
2022-12-26T00:03:04.468Z,99399.59
2022-12-26T00:05:36.401Z,99379.03
2022-12-26T00:08:03.783Z,99391.03
2022-12-26T00:10:30.686Z,99382.44
2022-12-26T00:13:39.232Z,99424.38
2022-12-26T00:15:44.618Z,99394.41
2022-12-26T00:18:11.876Z,99403.00
2022-12-26T00:20:38.821Z,99390.16
2022-12-26T00:23:06.135Z,99395.28
2022-12-26T00:25:34.550Z,99406.44
2022-12-26T00:28:01.627Z,99394.47
2022-12-26T00:30:28.651Z,99401.31
2022-12-26T00:32:55.860Z,99392.72
2022-12-26T00:35:22.846Z,99408.13
2022-12-26T00:37:49.823Z,99408.13
2022-12-26T00:40:18.785Z,99388.44
2022-12-26T00:42:45.703Z,99386.78
2022-12-26T00:45:12.603Z,99384.19
2022-12-26T00:47:39.533Z,99369.66
2022-12-26T00:50:14.661Z,99375.63
2022-12-26T00:52:42.808Z,99377.34
2022-12-26T00:55:10.066Z,99385.91
2022-12-26T00:57:36.966Z,99386.78
2022-12-26T01:00:04.930Z,99402.16
2022-12-26T01:02:41.270Z,99405.56
2022-12-26T01:05:09.503Z,99394.47
2022-12-26T01:08:23.543Z,99394.47
2022-12-26T01:10:24.140Z,99415.00
2022-12-26T01:12:51.242Z,99390.16
2022-12-26T01:15:18.204Z,99416.69
2022-12-26T01:17:46.194Z,99412.41
2022-12-26T01:20:13.173Z,99397.84
2022-12-26T01:22:40.043Z,99415.00
2022-12-26T01:25:07.839Z,99410.72
2022-12-26T01:27:34.735Z,99411.56
2022-12-26T01:30:01.687Z,99410.69
2022-12-26T01:32:28.674Z,99412.41
2022-12-26T01:34:56.434Z,99402.16
2022-12-26T01:37:23.755Z,99420.13
2022-12-26T01:39:51.789Z,99420.13
2022-12-26T01:42:22.606Z,99419.28
2022-12-26T01:44:55.607Z,99427.81
2022-12-26T01:47:23.734Z,99411.53
2022-12-26T01:49:52.951Z,99406.41
2022-12-26T01:52:24.921Z,99402.09
2022-12-26T01:54:51.880Z,99414.09
2022-12-26T01:57:24.584Z,99420.06
2022-12-26T01:59:51.658Z,99408.94
2022-12-26T02:02:19.420Z,99414.91
2022-12-26T02:05:07.153Z,99418.38
2022-12-26T02:07:34.735Z,99420.94
2022-12-26T02:10:02.185Z,99419.25
2022-12-26T02:12:36.266Z,99415.81
2022-12-26T02:15:10.457Z,99408.09
2022-12-26T02:17:38.357Z,99417.50
2022-12-26T02:20:23.860Z,99407.22
2022-12-26T02:23:09.732Z,99414.09
2022-12-26T02:26:09.938Z,99402.94
2022-12-26T02:29:02.264Z,99400.38
2022-12-26T02:31:35.768Z,99410.63
2022-12-26T02:34:23.341Z,99413.19
2022-12-26T02:36:56.428Z,99408.88
2022-12-26T02:39:44.993Z,99420.00
2022-12-26T02:43:06.948Z,99415.72
2022-12-26T02:46:07.819Z,99408.88
2022-12-26T02:48:46.460Z,99417.41
2022-12-26T02:52:06.498Z,99412.28
2022-12-26T02:54:57.651Z,99400.31
2022-12-26T02:57:46.179Z,99407.16
2022-12-26T03:00:38.329Z,99402.03
2022-12-26T03:03:37.657Z,99402.03
2022-12-26T03:06:24.185Z,99409.72
2022-12-26T03:09:13.724Z,99398.59
2022-12-26T03:11:59.580Z,99402.00
2022-12-26T03:14:30.735Z,99417.41
2022-12-26T03:17:19.844Z,99416.56
2022-12-26T03:20:01.036Z,99412.28
2022-12-26T03:22:47.914Z,99402.91
2022-12-26T03:25:39.018Z,99397.75
2022-12-26T03:28:05.902Z,99393.44
2022-12-26T03:30:51.125Z,99395.13
2022-12-26T03:33:37.083Z,99406.28
2022-12-26T03:36:04.861Z,99408.84
2022-12-26T03:39:07.967Z,99408.84
2022-12-26T03:42:16.407Z,99404.56
2022-12-26T03:45:27.690Z,99407.13
2022-12-26T03:48:44.493Z,99407.97
2022-12-26T03:51:34.277Z,99409.69
2022-12-26T03:54:32.088Z,99407.13
2022-12-26T03:57:23.550Z,99402.78
2022-12-26T04:00:13.033Z,99410.50
2022-12-26T04:02:59.052Z,99416.47
2022-12-26T04:05:44.642Z,99387.31
2022-12-26T04:08:34.732Z,99416.47
2022-12-26T04:11:19.958Z,99394.13
2022-12-26T04:14:29.488Z,99418.16
2022-12-26T04:17:16.849Z,99399.25
2022-12-26T04:19:51.639Z,99417.31
2022-12-26T04:22:47.049Z,99412.13
2022-12-26T04:25:50.689Z,99403.53
2022-12-26T04:28:40.393Z,99420.63
2022-12-26T04:31:32.735Z,99424.03
2022-12-26T04:34:23.429Z,99398.34
2022-12-26T04:37:11.499Z,99391.50
2022-12-26T04:39:56.910Z,99378.69
2022-12-26T04:42:42.391Z,99392.41
2022-12-26T04:45:09.738Z,99396.66
2022-12-26T04:47:36.570Z,99392.41
2022-12-26T04:50:12.488Z,99396.69
2022-12-26T04:52:55.140Z,99384.69
2022-12-26T04:55:22.869Z,99399.19
2022-12-26T04:57:49.761Z,99394.94
2022-12-26T05:00:17.065Z,99397.50
2022-12-26T05:03:02.650Z,99404.31
2022-12-26T05:06:12.915Z,99404.28
2022-12-26T05:09:03.174Z,99386.25
2022-12-26T05:11:31.044Z,99411.06
2022-12-26T05:13:58.136Z,99388.81
2022-12-26T05:16:44.565Z,99397.34
2022-12-26T05:19:31.083Z,99402.47
2022-12-26T05:22:17.194Z,99414.41
2022-12-26T05:25:02.484Z,99410.09
2022-12-26T05:27:55.707Z,99410.09
2022-12-26T05:30:22.845Z,99410.06
2022-12-26T05:33:08.131Z,99423.75
2022-12-26T05:35:35.077Z,99436.53
2022-12-26T05:38:02.539Z,99444.25
2022-12-26T05:40:29.588Z,99433.16
2022-12-26T05:42:56.520Z,99437.38
2022-12-26T05:45:23.579Z,99444.25
2022-12-26T05:47:52.141Z,99457.03
2022-12-26T05:50:19.417Z,99433.00
2022-12-26T05:52:46.299Z,99454.44
2022-12-26T05:55:13.200Z,99462.16
2022-12-26T05:57:40.154Z,99462.09
2022-12-26T06:00:07.814Z,99448.38
2022-12-26T06:02:35.166Z,99446.72
2022-12-26T06:05:02.268Z,99445.84
2022-12-26T06:07:29.230Z,99466.38
2022-12-26T06:09:56.225Z,99445.78
2022-12-26T06:12:23.147Z,99455.22
2022-12-26T06:14:50.155Z,99443.19
2022-12-26T06:17:17.333Z,99456.06
2022-12-26T06:19:46.887Z,99430.34
2022-12-26T06:22:14.131Z,99465.44
2022-12-26T06:24:41.012Z,99449.16
2022-12-26T06:27:07.928Z,99446.59
2022-12-26T06:29:34.904Z,99451.75
2022-12-26T06:32:02.558Z,99437.19
2022-12-26T06:34:29.660Z,99448.31
2022-12-26T06:36:56.791Z,99439.72
2022-12-26T06:39:24.856Z,99450.88
2022-12-26T06:41:52.040Z,99454.22
2022-12-26T06:44:19.108Z,99462.78
2022-12-26T06:46:46.268Z,99446.53
2022-12-26T06:49:13.371Z,99439.66
2022-12-26T06:51:41.181Z,99467.94
2022-12-26T06:54:08.096Z,99465.34
2022-12-26T06:56:35.635Z,99440.50
2022-12-26T06:59:03.968Z,99455.91
2022-12-26T07:01:32.209Z,99467.00
2022-12-26T07:04:00.159Z,99482.41
2022-12-26T07:06:30.761Z,99490.09
2022-12-26T07:09:05.266Z,99486.66
2022-12-26T07:11:34.288Z,99483.19
2022-12-26T07:14:01.306Z,99480.69
2022-12-26T07:16:28.310Z,99486.66
2022-12-26T07:18:55.968Z,99479.78
2022-12-26T07:21:23.028Z,99497.78
2022-12-26T07:23:50.268Z,99481.50
2022-12-26T07:26:17.382Z,99481.53
2022-12-26T07:28:44.294Z,99496.94
2022-12-26T07:31:18.996Z,99479.75
2022-12-26T07:33:49.880Z,99477.22
2022-12-26T07:36:17.031Z,99478.91
2022-12-26T07:38:44.110Z,99490.94
2022-12-26T07:41:29.455Z,99484.97
2022-12-26T07:43:56.516Z,99483.22
2022-12-26T07:46:23.454Z,99480.72
2022-12-26T07:48:50.439Z,99478.16
2022-12-26T07:51:17.301Z,99472.97
2022-12-26T07:53:44.255Z,99493.53
2022-12-26T07:56:11.137Z,99490.13
2022-12-26T07:58:38.082Z,99482.44
2022-12-26T08:01:06.735Z,99472.16
2022-12-26T08:03:34.532Z,99463.63
2022-12-26T08:06:01.539Z,99455.84
2022-12-26T08:08:28.495Z,99462.78
2022-12-26T08:11:00.189Z,99479.06
2022-12-26T08:13:28.880Z,99492.69
2022-12-26T08:15:56.281Z,99480.78
2022-12-26T08:18:23.407Z,99483.34
2022-12-26T08:20:50.700Z,99483.28
2022-12-26T08:23:17.779Z,99472.97
2022-12-26T08:25:44.852Z,99469.63
2022-12-26T08:28:11.834Z,99449.91
2022-12-26T08:30:42.349Z,99484.97
2022-12-26T08:33:09.818Z,99501.31
2022-12-26T08:35:37.393Z,99504.72
2022-12-26T08:38:04.539Z,99503.81
2022-12-26T08:40:43.027Z,99515.88
2022-12-26T08:43:30.172Z,99524.41
2022-12-26T08:46:04.072Z,99514.06
2022-12-26T08:48:31.219Z,99520.84
2022-12-26T08:51:00.228Z,99552.69
2022-12-26T08:53:29.264Z,99514.13
2022-12-26T08:55:56.721Z,99522.75
2022-12-26T08:58:23.735Z,99488.53
2022-12-26T09:00:55.203Z,99517.72
2022-12-26T09:03:22.792Z,99509.06
2022-12-26T09:05:49.736Z,99545.88
2022-12-26T09:08:16.791Z,99568.97
2022-12-26T09:10:43.751Z,99540.72
2022-12-26T09:13:10.710Z,99531.41
2022-12-26T09:15:38.395Z,99546.88
2022-12-26T09:18:05.389Z,99506.66
2022-12-26T09:20:33.156Z,99472.50
2022-12-26T09:23:00.114Z,99519.53
2022-12-26T09:25:27.155Z,99519.50
2022-12-26T09:27:59.067Z,99495.56
2022-12-26T09:30:26.669Z,99506.75
2022-12-26T09:32:54.119Z,99494.78
2022-12-26T09:35:21.169Z,99508.53
2022-12-26T09:37:48.209Z,99508.56
2022-12-26T09:40:22.614Z,99513.81
2022-12-26T09:43:01.038Z,99494.06
2022-12-26T09:45:37.722Z,99507.03
2022-12-26T09:48:14.473Z,99523.28
2022-12-26T09:50:43.345Z,99481.25
2022-12-26T09:53:14.733Z,99506.22
2022-12-26T09:55:44.646Z,99505.44
2022-12-26T09:58:28.650Z,99496.00
2022-12-26T10:01:14.253Z,99504.47
2022-12-26T10:03:49.370Z,99487.41
2022-12-26T10:06:17.520Z,99482.34
2022-12-26T10:09:03.092Z,99490.09
2022-12-26T10:12:04.384Z,99481.53
2022-12-26T10:15:19.891Z,99478.13
2022-12-26T10:18:20.909Z,99432.72
2022-12-26T10:21:16.462Z,99471.28
2022-12-26T10:23:45.748Z,99465.28
2022-12-26T10:26:15.682Z,99466.19
2022-12-26T10:28:54.891Z,99472.22
2022-12-26T10:31:33.946Z,99467.97
2022-12-26T10:34:26.355Z,99463.66
2022-12-26T10:36:54.746Z,99463.69
2022-12-26T10:39:25.411Z,99453.41
2022-12-26T10:41:54.654Z,99441.44
2022-12-26T10:44:27.366Z,99450.03
2022-12-26T10:47:13.745Z,99452.59
2022-12-26T10:49:40.784Z,99423.47
2022-12-26T10:52:07.795Z,99446.63
2022-12-26T10:54:34.763Z,99429.50
2022-12-26T10:57:01.748Z,99421.81
2022-12-26T10:59:43.709Z,99430.41
2022-12-26T11:02:32.665Z,99428.66
2022-12-26T11:05:33.376Z,99443.22
2022-12-26T11:08:28.185Z,99443.25
2022-12-26T11:11:09.076Z,99454.34
2022-12-26T11:13:39.826Z,99438.09
2022-12-26T11:16:07.554Z,99444.06
2022-12-26T11:18:39.639Z,99456.97
2022-12-26T11:21:18.758Z,99446.72
2022-12-26T11:23:46.707Z,99409.03
2022-12-26T11:26:23.717Z,99430.44
2022-12-26T11:29:10.916Z,99430.44
2022-12-26T11:31:42.164Z,99396.19
2022-12-26T11:34:10.831Z,99397.88
2022-12-26T11:36:40.505Z,99397.91
2022-12-26T11:39:22.658Z,99410.78
2022-12-26T11:41:49.735Z,99408.22
2022-12-26T11:44:28.876Z,99393.63
2022-12-26T11:47:10.886Z,99392.81
2022-12-26T11:50:00.403Z,99383.38
2022-12-26T11:52:35.031Z,99403.09
2022-12-26T11:55:02.119Z,99369.66
2022-12-26T11:57:32.936Z,99383.38
2022-12-26T12:00:20.096Z,99360.25
2022-12-26T12:02:47.215Z,99385.13
2022-12-26T12:05:21.179Z,99386.81
2022-12-26T12:07:57.896Z,99406.53
2022-12-26T12:11:00.465Z,99411.66
2022-12-26T12:13:42.423Z,99399.66
2022-12-26T12:16:22.722Z,99397.97
2022-12-26T12:19:14.303Z,99400.53
2022-12-26T12:21:45.244Z,99406.53
2022-12-26T12:24:40.124Z,99407.34
2022-12-26T12:27:29.371Z,99406.47
2022-12-26T12:30:15.009Z,99411.63
2022-12-26T12:33:06.784Z,99406.50
2022-12-26T12:35:47.482Z,99413.34
2022-12-26T12:38:21.882Z,99419.38
2022-12-26T12:40:58.481Z,99394.50
2022-12-26T12:43:31.322Z,99414.22
2022-12-26T12:46:20.124Z,99415.94
2022-12-26T12:49:17.548Z,99425.31
2022-12-26T12:51:46.607Z,99428.75
2022-12-26T12:54:28.485Z,99412.50
2022-12-26T12:57:05.412Z,99405.66
2022-12-26T12:59:43.939Z,99381.69
2022-12-26T13:02:42.155Z,99403.09
2022-12-26T13:05:15.798Z,99398.78
2022-12-26T13:07:47.375Z,99385.09
2022-12-26T13:10:34.686Z,99394.50
2022-12-26T13:13:34.101Z,99405.66
2022-12-26T13:16:07.062Z,99414.19
2022-12-26T13:18:36.441Z,99412.50
2022-12-26T13:21:08.219Z,99391.94
2022-12-26T13:24:02.799Z,99379.94
2022-12-26T13:26:32.244Z,99395.38
2022-12-26T13:29:03.263Z,99416.75
2022-12-26T13:31:35.414Z,99397.94
2022-12-26T13:34:03.251Z,99396.19
2022-12-26T13:36:35.581Z,99398.78
2022-12-26T13:39:14.243Z,99402.22
2022-12-26T13:42:06.157Z,99397.09
2022-12-26T13:44:33.156Z,99369.66
2022-12-26T13:47:00.268Z,99392.81
2022-12-26T13:49:38.951Z,99416.75
2022-12-26T13:52:12.086Z,99429.59
2022-12-26T13:54:48.419Z,99409.03
2022-12-26T13:57:42.068Z,99377.34
2022-12-26T14:00:17.120Z,99382.53
2022-12-26T14:03:15.884Z,99392.81
2022-12-26T14:06:04.391Z,99389.38
2022-12-26T14:08:57.653Z,99395.31
2022-12-26T14:11:37.837Z,99390.19
2022-12-26T14:14:38.947Z,99403.06
2022-12-26T14:17:20.176Z,99386.81
2022-12-26T14:20:02.359Z,99389.38
2022-12-26T14:22:52.476Z,99397.06
2022-12-26T14:25:30.627Z,99395.31
2022-12-26T14:28:09.957Z,99389.38
2022-12-26T14:30:36.889Z,99396.19
2022-12-26T14:33:21.704Z,99367.97
2022-12-26T14:36:12.645Z,99379.91
2022-12-26T14:39:04.634Z,99402.19
2022-12-26T14:42:25.214Z,99409.03
2022-12-26T14:44:58.891Z,99416.69
2022-12-26T14:47:44.074Z,99427.75
2022-12-26T14:50:32.846Z,99418.38
2022-12-26T14:53:30.102Z,99416.69
2022-12-26T14:56:12.084Z,99401.28
2022-12-26T14:58:45.989Z,99403.88
2022-12-26T15:01:13.208Z,99413.28
2022-12-26T15:03:52.218Z,99414.16
2022-12-26T15:06:19.149Z,99403.88
2022-12-26T15:09:19.899Z,99397.03
2022-12-26T15:12:08.339Z,99373.09
2022-12-26T15:14:59.763Z,99362.81
2022-12-26T15:17:50.330Z,99361.03
2022-12-26T15:20:30.874Z,99385.03
2022-12-26T15:23:13.005Z,99392.75
2022-12-26T15:26:17.381Z,99403.84
2022-12-26T15:29:11.708Z,99376.47
2022-12-26T15:31:38.447Z,99400.34
2022-12-26T15:34:11.358Z,99405.53
2022-12-26T15:36:49.995Z,99386.72
2022-12-26T15:39:41.163Z,99402.97
2022-12-26T15:42:23.525Z,99392.69
2022-12-26T15:45:06.302Z,99363.59
2022-12-26T15:48:08.583Z,99392.69
2022-12-26T15:50:57.106Z,99400.41
2022-12-26T15:53:38.210Z,99406.38
2022-12-26T15:56:29.760Z,99404.66
2022-12-26T15:59:09.298Z,99408.94
2022-12-26T16:01:46.604Z,99386.66
2022-12-26T16:04:36.341Z,99402.06
2022-12-26T16:07:12.201Z,99403.81
2022-12-26T16:09:53.203Z,99381.53
2022-12-26T16:12:30.881Z,99366.13
2022-12-26T16:15:10.111Z,99395.25
2022-12-26T16:17:37.909Z,99399.50
2022-12-26T16:20:43.900Z,99366.09
2022-12-26T16:23:18.538Z,99369.50
2022-12-26T16:25:49.568Z,99380.63
2022-12-26T16:28:17.764Z,99373.81
2022-12-26T16:30:44.758Z,99403.75
2022-12-26T16:33:13.455Z,99381.50
2022-12-26T16:35:41.870Z,99376.34
2022-12-26T16:38:15.775Z,99390.94
2022-12-26T16:40:47.532Z,99352.38
2022-12-26T16:43:14.397Z,99388.34
2022-12-26T16:45:41.384Z,99382.31
2022-12-26T16:48:09.050Z,99390.88
2022-12-26T16:50:38.104Z,99415.72
2022-12-26T16:53:12.474Z,99418.28
2022-12-26T16:55:44.705Z,99376.31
2022-12-26T16:58:34.984Z,99410.56
2022-12-26T17:01:04.964Z,99398.56
2022-12-26T17:04:04.862Z,99392.56
2022-12-26T17:06:36.426Z,99365.16
2022-12-26T17:09:11.433Z,99386.63
2022-12-26T17:11:52.537Z,99372.94
2022-12-26T17:14:30.849Z,99361.75
2022-12-26T17:17:05.742Z,99378.94
2022-12-26T17:19:34.464Z,99369.44
2022-12-26T17:22:29.192Z,99393.44
2022-12-26T17:25:17.374Z,99403.69
2022-12-26T17:27:45.076Z,99398.53
2022-12-26T17:30:28.297Z,99414.81
2022-12-26T17:32:55.530Z,99388.19
2022-12-26T17:35:26.442Z,99382.19
2022-12-26T17:38:16.477Z,99401.97
2022-12-26T17:40:45.291Z,99375.38
2022-12-26T17:43:12.155Z,99410.50
2022-12-26T17:45:46.386Z,99395.94
2022-12-26T17:48:14.018Z,99384.75
2022-12-26T17:50:42.434Z,99389.06
2022-12-26T17:53:32.681Z,99406.22
2022-12-26T17:56:04.860Z,99404.53
2022-12-26T17:58:31.966Z,99375.34
2022-12-26T18:00:59.447Z,99365.94
2022-12-26T18:03:26.775Z,99368.50
2022-12-26T18:05:56.501Z,99363.44
2022-12-26T18:08:32.056Z,99360.94
2022-12-26T18:10:59.844Z,99339.47
2022-12-26T18:13:26.871Z,99337.72
2022-12-26T18:15:54.533Z,99343.72
2022-12-26T18:18:24.464Z,99356.59
2022-12-26T18:20:51.655Z,99348.00
2022-12-26T18:23:18.861Z,99318.88
2022-12-26T18:25:48.175Z,99347.16
2022-12-26T18:28:18.850Z,99340.28
2022-12-26T18:30:45.833Z,99331.72
2022-12-26T18:33:13.766Z,99355.66
2022-12-26T18:35:41.740Z,99348.81
2022-12-26T18:38:10.440Z,99334.22
2022-12-26T18:40:42.556Z,99349.63
2022-12-26T18:43:09.658Z,99362.47
2022-12-26T18:45:38.163Z,99344.50
2022-12-26T18:48:06.155Z,99340.19
2022-12-26T18:50:33.488Z,99368.44
2022-12-26T18:53:00.603Z,99371.00
2022-12-26T18:55:28.822Z,99364.94
2022-12-26T18:57:55.865Z,99376.03
2022-12-26T19:00:23.221Z,99376.84
2022-12-26T19:02:50.446Z,99408.56
2022-12-26T19:05:34.458Z,99375.16
2022-12-26T19:08:01.660Z,99404.16
2022-12-26T19:10:31.360Z,99391.38
2022-12-26T19:13:05.783Z,99367.41
2022-12-26T19:15:34.261Z,99398.22
2022-12-26T19:18:01.315Z,99360.53
2022-12-26T19:20:28.413Z,99373.44
2022-12-26T19:22:55.577Z,99359.72
2022-12-26T19:25:23.574Z,99365.66
2022-12-26T19:27:50.897Z,99367.44
2022-12-26T19:30:18.404Z,99380.22
2022-12-26T19:32:45.409Z,99401.63
2022-12-26T19:35:12.651Z,99384.44
2022-12-26T19:37:39.599Z,99409.22
2022-12-26T19:40:07.246Z,99392.09
2022-12-26T19:42:34.889Z,99403.25
2022-12-26T19:45:01.937Z,99397.25
2022-12-26T19:47:29.125Z,99410.13
2022-12-26T19:49:56.143Z,99382.72
2022-12-26T19:52:23.146Z,99392.97
2022-12-26T19:54:50.162Z,99398.94
2022-12-26T19:57:17.249Z,99412.63
2022-12-26T19:59:44.212Z,99413.50
2022-12-26T20:02:12.668Z,99398.91
2022-12-26T20:04:39.874Z,99410.00
2022-12-26T20:07:06.864Z,99396.34
2022-12-26T20:09:33.989Z,99412.66
2022-12-26T20:12:02.169Z,99408.38
2022-12-26T20:14:29.437Z,99397.28
2022-12-26T20:17:05.578Z,99358.81
2022-12-26T20:19:34.272Z,99340.88
2022-12-26T20:22:01.268Z,99329.78
2022-12-26T20:24:28.285Z,99334.94
2022-12-26T20:26:55.227Z,99348.66
2022-12-26T20:29:22.323Z,99321.25
2022-12-26T20:31:49.738Z,99340.03
2022-12-26T20:34:16.913Z,99344.22
2022-12-26T20:36:43.959Z,99383.66
2022-12-26T20:39:13.485Z,99367.38
2022-12-26T20:41:40.502Z,99362.19
2022-12-26T20:44:07.575Z,99368.22
2022-12-26T20:46:35.399Z,99363.97
2022-12-26T20:49:04.701Z,99344.25
2022-12-26T20:51:37.314Z,99348.56
2022-12-26T20:54:06.073Z,99354.44
2022-12-26T20:56:33.102Z,99351.03
2022-12-26T20:59:00.239Z,99352.69
2022-12-26T21:01:27.751Z,99377.47
2022-12-26T21:03:55.337Z,99404.88
2022-12-26T21:06:23.928Z,99404.03
2022-12-26T21:08:51.746Z,99361.22
2022-12-26T21:11:24.398Z,99373.16
2022-12-26T21:13:52.562Z,99378.28
2022-12-26T21:16:23.467Z,99394.53
2022-12-26T21:18:50.531Z,99418.47
2022-12-26T21:21:22.824Z,99412.50
2022-12-26T21:23:49.993Z,99428.72
2022-12-26T21:26:16.973Z,99400.44
2022-12-26T21:28:44.042Z,99396.16
2022-12-26T21:31:11.212Z,99403.84
2022-12-26T21:33:44.266Z,99405.66
2022-12-26T21:36:12.568Z,99403.09
2022-12-26T21:38:39.559Z,99395.28
2022-12-26T21:41:08.288Z,99399.50
2022-12-26T21:43:35.282Z,99402.03
2022-12-26T21:46:09.838Z,99395.19
2022-12-26T21:48:37.163Z,99402.06
2022-12-26T21:51:10.221Z,99417.56
2022-12-26T21:53:37.262Z,99389.25
2022-12-26T21:56:06.087Z,99386.75
2022-12-26T21:58:53.132Z,99384.25
2022-12-26T22:01:20.781Z,99359.34
2022-12-26T22:04:06.748Z,99371.31
2022-12-26T22:06:33.756Z,99371.31
2022-12-26T22:09:00.851Z,99390.19
2022-12-26T22:11:46.220Z,99359.38
2022-12-26T22:14:13.333Z,99368.78
2022-12-26T22:16:40.331Z,99348.22
2022-12-26T22:19:07.658Z,99385.06
2022-12-26T22:21:34.752Z,99397.88
2022-12-26T22:24:01.710Z,99359.28
2022-12-26T22:26:29.174Z,99367.91
2022-12-26T22:28:56.843Z,99382.47
2022-12-26T22:31:37.153Z,99396.16
2022-12-26T22:34:09.884Z,99380.63
2022-12-26T22:36:36.879Z,99408.78
2022-12-26T22:39:03.920Z,99394.28
2022-12-26T22:41:31.025Z,99382.34
2022-12-26T22:43:57.937Z,99374.66
2022-12-26T22:46:25.071Z,99386.72
2022-12-26T22:48:52.170Z,99374.69
2022-12-26T22:51:20.997Z,99375.50
2022-12-26T22:53:48.018Z,99358.44
2022-12-26T22:56:15.312Z,99357.53
2022-12-26T22:58:42.256Z,99380.66
2022-12-26T23:01:14.497Z,99368.66
2022-12-26T23:03:41.755Z,99399.44
2022-12-26T23:06:35.537Z,99398.63
2022-12-26T23:09:04.232Z,99377.16
2022-12-26T23:11:35.134Z,99390.06
2022-12-26T23:14:05.111Z,99354.97
2022-12-26T23:16:40.211Z,99350.75
2022-12-26T23:19:35.892Z,99363.56
2022-12-26T23:22:03.038Z,99361.81
2022-12-26T23:24:32.044Z,99366.94
2022-12-26T23:27:24.619Z,99384.84
2022-12-26T23:30:10.153Z,99420.75
2022-12-26T23:32:37.812Z,99424.97
2022-12-26T23:35:07.242Z,99420.75
2022-12-26T23:37:34.307Z,99406.16
2022-12-26T23:40:01.289Z,99389.81
2022-12-26T23:42:28.270Z,99423.31
2022-12-26T23:44:55.237Z,99420.75
2022-12-26T23:47:22.256Z,99410.44
2022-12-26T23:49:49.242Z,99383.91
2022-12-26T23:52:16.185Z,99387.28
2022-12-26T23:54:43.247Z,99387.31
2022-12-26T23:57:10.186Z,99362.59
2022-12-26T23:59:37.214Z,99363.44
